Fairview Heights, Pennsylvania
Current Conditions -  °F | °C
As of 8:54 PM on Friday 19 Dec 2014 (Local Time) from KRDG Reporting Station
Overcast Overcast  
Wind Chill: 29°   Ceiling: 3700
Heat Index: 34°   Visibility: 10mi
Dew Point: 21°   Wind: 6mph
Humidity: 59%   Direction: 330°NNW
Pressure: 30.19"   Gusts: NA
Location:  40.4116°N, 75.999°W
Report Text: KRDG 200154Z 33005KT 10SM OVC037 01/M06 A3019 RMK AO2 SLP231 T00111061
Loading
Personal Weather Stations






























Interactive Weather Map New forecast layout! Learn more

10-Day Weather Forecast

Advertisements
Track Severe Weather on mobile